createdAt,value
2023-04-16T00:00:03.911Z,5.70
2023-04-16T00:04:59.877Z,7.20
2023-04-16T00:07:27.572Z,5.60
2023-04-16T00:09:55.666Z,6.50
2023-04-16T00:12:23.778Z,5.30
2023-04-16T00:14:51.471Z,4.70
2023-04-16T00:17:19.134Z,7.70
2023-04-16T00:19:46.785Z,5.50
2023-04-16T00:22:14.466Z,5.50
2023-04-16T00:24:42.273Z,6.00
2023-04-16T00:27:09.972Z,5.60
2023-04-16T00:29:37.606Z,6.60
2023-04-16T00:32:05.940Z,6.90
2023-04-16T00:34:33.589Z,6.70
2023-04-16T00:37:01.482Z,9.00
2023-04-16T00:39:29.146Z,6.80
2023-04-16T00:41:56.851Z,7.00
2023-04-16T00:44:24.530Z,7.40
2023-04-16T00:46:52.297Z,6.70
2023-04-16T00:49:20.017Z,6.80
2023-04-16T00:51:48.152Z,6.60
2023-04-16T00:54:15.983Z,6.10
2023-04-16T00:56:44.598Z,7.20
2023-04-16T00:59:12.524Z,7.40
2023-04-16T01:01:40.609Z,7.30
2023-04-16T01:04:08.651Z,6.40
2023-04-16T01:06:36.479Z,9.40
2023-04-16T01:09:04.210Z,7.10
2023-04-16T01:11:32.091Z,7.30
2023-04-16T01:13:59.705Z,9.00
2023-04-16T01:16:27.461Z,7.00
2023-04-16T01:18:55.144Z,6.30
2023-04-16T01:21:22.779Z,6.70
2023-04-16T01:23:50.563Z,10.10
2023-04-16T01:26:18.208Z,7.00
2023-04-16T01:28:45.916Z,8.50
2023-04-16T01:31:13.595Z,7.00
2023-04-16T01:33:41.328Z,6.60
2023-04-16T01:36:09.000Z,7.40
2023-04-16T01:38:36.677Z,8.50
2023-04-16T01:41:04.304Z,6.90
2023-04-16T01:43:31.984Z,6.50
2023-04-16T01:46:15.248Z,6.10
2023-04-16T01:48:43.133Z,6.80
2023-04-16T01:51:10.977Z,6.10
2023-04-16T01:53:38.726Z,6.90
2023-04-16T01:56:06.863Z,6.20
2023-04-16T01:58:35.759Z,7.50
2023-04-16T02:01:04.528Z,8.20
2023-04-16T02:03:32.659Z,6.90
2023-04-16T02:06:01.529Z,5.70
2023-04-16T02:08:29.201Z,8.40
2023-04-16T02:10:57.576Z,8.50
2023-04-16T02:13:26.140Z,9.30
2023-04-16T02:15:53.940Z,8.60
2023-04-16T02:18:21.584Z,7.60
2023-04-16T02:20:51.888Z,7.20
2023-04-16T02:23:19.534Z,8.70
2023-04-16T02:25:47.702Z,8.10
2023-04-16T02:28:17.128Z,6.00
2023-04-16T02:30:45.298Z,7.00
2023-04-16T02:33:13.295Z,8.10
2023-04-16T02:35:41.350Z,6.40
2023-04-16T02:38:09.284Z,7.10
2023-04-16T02:40:37.062Z,8.00
2023-04-16T02:43:04.722Z,6.90
2023-04-16T02:45:32.445Z,7.00
2023-04-16T02:48:00.957Z,8.20
2023-04-16T02:50:28.767Z,8.80
2023-04-16T02:52:56.493Z,8.30
2023-04-16T02:55:24.269Z,11.90
2023-04-16T02:57:53.082Z,9.90
2023-04-16T03:00:20.840Z,8.80
2023-04-16T03:02:48.656Z,9.20
2023-04-16T03:05:16.621Z,10.40
2023-04-16T03:07:44.326Z,10.30
2023-04-16T03:10:12.485Z,9.70
2023-04-16T03:12:40.131Z,11.00
2023-04-16T03:15:08.511Z,10.20
2023-04-16T03:17:36.447Z,11.60
2023-04-16T03:20:05.778Z,12.50
2023-04-16T03:22:33.468Z,11.30
2023-04-16T03:25:01.425Z,10.30
2023-04-16T03:27:29.092Z,11.00
2023-04-16T03:29:57.245Z,12.50
2023-04-16T03:32:24.949Z,10.70
2023-04-16T03:34:52.783Z,13.60
2023-04-16T03:37:20.547Z,13.20
2023-04-16T03:39:48.208Z,13.70
2023-04-16T03:42:16.157Z,13.60
2023-04-16T03:44:43.955Z,12.70
2023-04-16T03:47:11.716Z,12.10
2023-04-16T03:49:39.359Z,13.70
2023-04-16T03:52:07.420Z,11.70
2023-04-16T03:54:35.103Z,13.10
2023-04-16T03:57:03.068Z,12.70
2023-04-16T03:59:30.833Z,16.40
2023-04-16T04:01:58.495Z,16.80
2023-04-16T04:04:26.426Z,13.20
2023-04-16T04:06:54.365Z,14.00
2023-04-16T04:09:22.093Z,14.70
2023-04-16T04:11:50.635Z,12.80
2023-04-16T04:14:18.333Z,14.80
2023-04-16T04:16:46.430Z,11.90
2023-04-16T04:19:14.270Z,15.90
2023-04-16T04:21:41.902Z,15.60
2023-04-16T04:24:09.668Z,13.80
2023-04-16T04:26:37.536Z,15.40
2023-04-16T04:29:05.838Z,15.20
2023-04-16T04:31:33.662Z,11.60
2023-04-16T04:34:01.392Z,13.50
2023-04-16T04:36:29.122Z,11.30
2023-04-16T04:38:56.814Z,11.70
2023-04-16T04:41:24.759Z,13.20
2023-04-16T04:43:52.648Z,12.50
2023-04-16T04:46:20.563Z,12.70
2023-04-16T04:48:48.446Z,13.30
2023-04-16T04:51:16.081Z,13.30
2023-04-16T04:53:43.770Z,13.80
2023-04-16T04:56:13.031Z,13.10
2023-04-16T04:58:41.985Z,11.70
2023-04-16T05:01:09.805Z,14.40
2023-04-16T05:03:37.803Z,14.60
2023-04-16T05:06:07.090Z,13.10
2023-04-16T05:08:34.718Z,13.90
2023-04-16T05:11:02.513Z,13.80
2023-04-16T05:13:30.157Z,12.90
2023-04-16T05:15:57.943Z,14.90
2023-04-16T05:18:25.602Z,14.10
2023-04-16T05:20:53.362Z,12.80
2023-04-16T05:23:21.028Z,12.60
2023-04-16T05:25:48.688Z,10.70
2023-04-16T05:28:16.346Z,11.60
2023-04-16T05:30:44.095Z,11.80
2023-04-16T05:33:11.751Z,12.00
2023-04-16T05:35:39.465Z,12.00
2023-04-16T05:38:07.178Z,12.60
2023-04-16T05:40:34.860Z,12.60
2023-04-16T05:43:02.618Z,12.70
2023-04-16T05:45:31.502Z,13.80
2023-04-16T05:47:59.228Z,11.20
2023-04-16T05:50:27.030Z,12.40
2023-04-16T05:52:54.790Z,10.90
2023-04-16T05:55:22.876Z,12.60
2023-04-16T05:57:50.636Z,12.30
2023-04-16T06:00:18.581Z,10.40
2023-04-16T06:02:46.465Z,10.30
2023-04-16T06:05:14.662Z,10.80
2023-04-16T06:07:42.739Z,11.40
2023-04-16T06:10:10.996Z,11.40
2023-04-16T06:12:38.651Z,9.90
2023-04-16T06:15:07.402Z,9.20
2023-04-16T06:17:35.170Z,10.60
2023-04-16T06:20:03.080Z,9.90
2023-04-16T06:22:31.033Z,9.90
2023-04-16T06:24:58.837Z,10.10
2023-04-16T06:27:27.277Z,8.60
2023-04-16T06:29:54.920Z,11.40
2023-04-16T06:32:22.810Z,9.30
2023-04-16T06:34:50.969Z,9.40
2023-04-16T06:37:18.593Z,9.90
2023-04-16T06:39:46.215Z,9.80
2023-04-16T06:42:14.077Z,9.20
2023-04-16T06:44:41.759Z,9.10
2023-04-16T06:47:09.628Z,9.50
2023-04-16T06:49:37.542Z,8.60
2023-04-16T06:52:06.155Z,9.60
2023-04-16T06:54:34.197Z,9.50
2023-04-16T06:57:02.166Z,9.20
2023-04-16T06:59:29.899Z,12.10
2023-04-16T07:01:57.816Z,8.90
2023-04-16T07:04:26.243Z,7.60
2023-04-16T07:06:54.075Z,8.40
2023-04-16T07:09:21.810Z,9.30
2023-04-16T07:11:49.451Z,7.30
2023-04-16T07:14:17.440Z,9.20
2023-04-16T07:16:45.129Z,7.70
2023-04-16T07:19:12.966Z,7.90
2023-04-16T07:21:43.645Z,7.40
2023-04-16T07:24:11.856Z,9.00
2023-04-16T07:26:39.636Z,10.60
2023-04-16T07:29:07.640Z,17.10
2023-04-16T07:31:35.712Z,21.80
2023-04-16T07:34:03.669Z,17.70
2023-04-16T07:36:32.016Z,8.00
2023-04-16T07:38:59.795Z,7.20
2023-04-16T07:41:29.575Z,9.80
2023-04-16T07:43:57.770Z,7.00
2023-04-16T07:46:30.539Z,6.70
2023-04-16T07:49:03.825Z,8.10
2023-04-16T07:51:31.615Z,7.50
2023-04-16T07:53:59.283Z,7.20
2023-04-16T07:56:27.644Z,8.60
2023-04-16T07:58:55.528Z,7.10
2023-04-16T08:01:23.269Z,7.20
2023-04-16T08:03:51.317Z,7.70
2023-04-16T08:06:19.200Z,8.10
2023-04-16T08:08:46.883Z,7.60
2023-04-16T08:11:15.368Z,9.00
2023-04-16T08:13:43.210Z,7.40
2023-04-16T08:16:11.270Z,8.80
2023-04-16T08:18:38.955Z,8.00
2023-04-16T08:21:06.675Z,8.50
2023-04-16T08:23:34.569Z,9.90
2023-04-16T08:26:02.338Z,6.50
2023-04-16T08:28:30.085Z,7.40
2023-04-16T08:30:57.894Z,7.70
2023-04-16T08:33:25.759Z,6.60
2023-04-16T08:35:53.407Z,9.00
2023-04-16T08:38:21.158Z,7.20
2023-04-16T08:40:49.018Z,8.50
2023-04-16T08:43:18.233Z,7.30
2023-04-16T08:45:47.693Z,6.60
2023-04-16T08:48:15.710Z,9.50
2023-04-16T08:50:44.229Z,8.80
2023-04-16T08:53:18.681Z,8.90
2023-04-16T08:55:50.759Z,6.50
2023-04-16T08:58:23.065Z,8.50
2023-04-16T09:00:52.161Z,9.80
2023-04-16T09:03:21.618Z,7.00
2023-04-16T09:05:50.560Z,7.50
2023-04-16T09:08:18.604Z,6.70
2023-04-16T09:10:46.964Z,5.90
2023-04-16T09:13:17.011Z,6.10
2023-04-16T09:15:44.917Z,5.80
2023-04-16T09:18:12.851Z,6.40
2023-04-16T09:20:40.624Z,6.70
2023-04-16T09:23:09.460Z,6.80
2023-04-16T09:25:38.632Z,5.90
2023-04-16T09:28:06.418Z,7.50
2023-04-16T09:30:34.956Z,18.80
2023-04-16T09:33:23.189Z,10.30
2023-04-16T09:35:53.180Z,9.30
2023-04-16T09:38:21.210Z,6.40
2023-04-16T09:41:08.912Z,7.40
2023-04-16T09:43:37.030Z,6.40
2023-04-16T09:46:08.214Z,9.00
2023-04-16T09:48:36.668Z,5.80
2023-04-16T09:51:06.558Z,7.00
2023-04-16T09:53:34.346Z,5.10
2023-04-16T09:56:04.948Z,7.30
2023-04-16T09:58:36.524Z,7.20
2023-04-16T10:03:36.778Z,6.30
2023-04-16T10:06:09.564Z,5.70
2023-04-16T10:08:37.327Z,6.30
2023-04-16T10:11:05.533Z,5.50
2023-04-16T10:13:33.285Z,6.80
2023-04-16T10:16:01.716Z,7.50
2023-04-16T10:18:29.556Z,6.10
2023-04-16T10:20:57.663Z,6.30
2023-04-16T10:23:26.429Z,5.70
2023-04-16T10:25:57.528Z,5.20
2023-04-16T10:28:29.536Z,6.50
2023-04-16T10:30:58.789Z,4.80
2023-04-16T10:33:33.490Z,6.40
2023-04-16T10:36:27.709Z,5.90
2023-04-16T10:41:26.989Z,5.30
2023-04-16T10:44:07.075Z,5.20
2023-04-16T10:46:44.877Z,5.40
2023-04-16T10:49:20.431Z,7.00
2023-04-16T10:52:13.049Z,6.00
2023-04-16T10:54:41.407Z,6.30
2023-04-16T10:57:14.979Z,7.80
2023-04-16T10:59:43.872Z,5.10
2023-04-16T11:02:19.213Z,8.50
2023-04-16T11:04:49.209Z,4.70
2023-04-16T11:07:31.755Z,5.80
2023-04-16T11:10:04.157Z,5.50
2023-04-16T11:12:40.492Z,5.70
2023-04-16T11:15:13.453Z,5.70
2023-04-16T11:17:48.527Z,5.40
2023-04-16T11:20:19.771Z,6.20
2023-04-16T11:22:53.835Z,6.50
2023-04-16T11:25:22.966Z,7.00
2023-04-16T11:27:52.096Z,8.80
2023-04-16T11:30:33.433Z,8.00
2023-04-16T11:33:12.324Z,7.00
2023-04-16T11:35:43.347Z,8.10
2023-04-16T11:40:38.641Z,6.70
2023-04-16T11:43:16.825Z,6.80
2023-04-16T11:46:10.026Z,6.80
2023-04-16T11:48:50.372Z,7.10
2023-04-16T11:51:19.335Z,6.00
2023-04-16T11:53:53.171Z,7.60
2023-04-16T11:56:32.976Z,7.80
2023-04-16T11:59:24.201Z,7.00
2023-04-16T12:01:58.032Z,7.20
2023-04-16T12:04:27.743Z,7.30
2023-04-16T12:07:10.123Z,9.00
2023-04-16T12:09:40.784Z,5.90
2023-04-16T12:12:31.660Z,6.60
2023-04-16T12:15:03.609Z,6.40
2023-04-16T12:17:35.391Z,5.60
2023-04-16T12:20:08.441Z,6.80
2023-04-16T12:22:38.078Z,6.70
2023-04-16T12:25:10.660Z,6.70
2023-04-16T12:28:08.201Z,7.20
2023-04-16T12:30:51.502Z,7.00
2023-04-16T12:33:19.602Z,6.60
2023-04-16T12:35:47.457Z,6.20
2023-04-16T12:38:15.539Z,7.40
2023-04-16T12:40:43.717Z,6.70
2023-04-16T12:43:11.992Z,7.20
2023-04-16T12:45:40.590Z,8.40
2023-04-16T12:48:08.442Z,7.90
2023-04-16T12:50:36.209Z,7.80
2023-04-16T12:53:04.063Z,10.20
2023-04-16T12:55:31.836Z,8.20
2023-04-16T12:57:59.539Z,7.00
2023-04-16T13:00:27.357Z,8.90
2023-04-16T13:02:55.177Z,9.60
2023-04-16T13:05:22.984Z,10.20
2023-04-16T13:07:50.698Z,9.00
2023-04-16T13:10:21.571Z,7.00
2023-04-16T13:12:49.358Z,6.90
2023-04-16T13:15:17.207Z,7.90
2023-04-16T13:17:45.057Z,7.80
2023-04-16T13:20:12.955Z,12.20
2023-04-16T13:22:40.861Z,8.30
2023-04-16T13:25:09.359Z,6.90
2023-04-16T13:27:37.170Z,9.60
2023-04-16T13:30:05.877Z,7.00
2023-04-16T13:32:33.861Z,7.90
2023-04-16T13:35:01.778Z,7.90
2023-04-16T13:37:29.474Z,9.40
2023-04-16T13:39:57.195Z,8.20
2023-04-16T13:42:24.856Z,7.70
2023-04-16T13:44:55.046Z,8.20
2023-04-16T13:47:22.957Z,8.70
2023-04-16T13:49:50.828Z,6.80
2023-04-16T13:52:18.572Z,9.60
2023-04-16T13:54:46.258Z,9.60
2023-04-16T13:57:14.240Z,8.00
2023-04-16T13:59:42.076Z,7.40
2023-04-16T14:02:14.308Z,10.30
2023-04-16T14:04:42.068Z,11.70
2023-04-16T14:07:09.734Z,8.90
2023-04-16T14:09:37.672Z,11.00
2023-04-16T14:12:05.970Z,10.20
2023-04-16T14:14:33.895Z,12.30
2023-04-16T14:17:03.425Z,8.10
2023-04-16T14:19:31.349Z,7.40
2023-04-16T14:21:59.115Z,7.50
2023-04-16T14:24:26.876Z,7.20
2023-04-16T14:26:54.526Z,6.70
2023-04-16T14:29:22.281Z,9.10
2023-04-16T14:31:50.512Z,7.90
2023-04-16T14:34:18.248Z,7.70
2023-04-16T14:36:46.027Z,9.10
2023-04-16T14:39:13.760Z,7.40
2023-04-16T14:41:41.631Z,7.20
2023-04-16T14:44:09.234Z,8.70
2023-04-16T14:46:38.619Z,6.50
2023-04-16T14:49:06.533Z,6.00
2023-04-16T14:51:34.284Z,8.40
2023-04-16T14:54:02.183Z,7.30
2023-04-16T14:56:30.205Z,7.10
2023-04-16T14:58:57.916Z,7.20
2023-04-16T15:01:26.281Z,8.20
2023-04-16T15:03:56.611Z,6.80
2023-04-16T15:06:24.476Z,8.70
2023-04-16T15:08:52.236Z,6.60
2023-04-16T15:11:20.024Z,7.40
2023-04-16T15:13:47.708Z,5.80
2023-04-16T15:16:15.451Z,7.40
2023-04-16T15:18:43.410Z,7.00
2023-04-16T15:21:12.556Z,8.20
2023-04-16T15:23:40.668Z,7.30
2023-04-16T15:26:08.408Z,7.80
2023-04-16T15:28:36.061Z,6.90
2023-04-16T15:31:03.771Z,8.40
2023-04-16T15:33:31.514Z,6.30
2023-04-16T15:35:59.198Z,8.20
2023-04-16T15:38:28.782Z,8.20
2023-04-16T15:40:59.823Z,9.80
2023-04-16T15:45:57.400Z,7.80
2023-04-16T15:48:25.110Z,8.20
2023-04-16T15:50:54.264Z,8.10
2023-04-16T15:53:22.307Z,9.20
2023-04-16T15:55:52.685Z,8.00
2023-04-16T15:58:23.594Z,8.30
2023-04-16T16:03:20.123Z,9.00
2023-04-16T16:05:48.620Z,7.60
2023-04-16T16:08:16.818Z,7.70
2023-04-16T16:10:44.700Z,6.90
2023-04-16T16:13:14.111Z,7.70
2023-04-16T16:15:42.624Z,7.40
2023-04-16T16:18:10.831Z,9.60
2023-04-16T16:20:40.662Z,7.70
2023-04-16T16:23:08.420Z,8.10
2023-04-16T16:25:36.355Z,7.50
2023-04-16T16:28:06.651Z,8.50
2023-04-16T16:30:34.527Z,9.40
2023-04-16T16:33:02.301Z,7.90
2023-04-16T16:35:30.081Z,9.70
2023-04-16T16:37:59.481Z,7.80
2023-04-16T16:40:27.929Z,8.20
2023-04-16T16:42:56.185Z,7.70
2023-04-16T16:45:26.321Z,8.30
2023-04-16T16:47:55.008Z,8.90
2023-04-16T16:50:22.910Z,9.30
2023-04-16T16:52:50.858Z,8.20
2023-04-16T16:55:19.116Z,8.40
2023-04-16T16:57:47.115Z,11.60
2023-04-16T17:00:16.347Z,9.90
2023-04-16T17:02:44.556Z,7.90
2023-04-16T17:05:13.085Z,9.50
2023-04-16T17:07:40.824Z,11.30
2023-04-16T17:10:15.863Z,10.00
2023-04-16T17:12:43.548Z,10.40
2023-04-16T17:15:11.887Z,9.80
2023-04-16T17:17:39.778Z,9.50
2023-04-16T17:20:10.006Z,9.30
2023-04-16T17:22:39.126Z,11.90
2023-04-16T17:25:08.222Z,11.20
2023-04-16T17:27:36.309Z,11.00
2023-04-16T17:30:05.840Z,10.90
2023-04-16T17:32:33.773Z,11.00
2023-04-16T17:35:04.515Z,11.50
2023-04-16T17:37:32.692Z,11.10
2023-04-16T17:40:00.540Z,9.00
2023-04-16T17:42:28.246Z,10.70
2023-04-16T17:44:56.031Z,13.00
2023-04-16T17:47:23.783Z,13.20
2023-04-16T17:49:55.555Z,15.60
2023-04-16T17:52:23.387Z,12.30
2023-04-16T17:54:51.286Z,12.90
2023-04-16T17:57:19.035Z,11.40
2023-04-16T17:59:46.800Z,12.30
2023-04-16T18:02:14.902Z,11.50
2023-04-16T18:04:43.045Z,11.70
2023-04-16T18:07:11.568Z,13.90
2023-04-16T18:09:39.377Z,15.00
2023-04-16T18:12:07.542Z,14.30
2023-04-16T18:14:35.999Z,14.20
2023-04-16T18:17:06.243Z,16.00
2023-04-16T18:19:35.610Z,11.90
2023-04-16T18:22:03.882Z,15.70
2023-04-16T18:24:33.498Z,14.80
2023-04-16T18:27:01.734Z,15.70
2023-04-16T18:29:29.571Z,13.40
2023-04-16T18:31:57.435Z,14.60
2023-04-16T18:34:26.026Z,19.70
2023-04-16T18:36:54.162Z,14.30
2023-04-16T18:39:21.997Z,14.80
2023-04-16T18:41:49.919Z,15.20
2023-04-16T18:44:19.920Z,14.10
2023-04-16T18:46:48.650Z,15.40
2023-04-16T18:49:16.529Z,13.20
2023-04-16T18:51:44.294Z,13.20
2023-04-16T18:54:12.103Z,12.10
2023-04-16T18:56:39.889Z,13.30
2023-04-16T18:59:07.710Z,13.50
2023-04-16T19:01:35.740Z,13.60
2023-04-16T19:04:03.845Z,15.00
2023-04-16T19:06:32.542Z,12.20
2023-04-16T19:09:00.257Z,15.70
2023-04-16T19:11:28.039Z,14.60
2023-04-16T19:13:57.497Z,15.50
2023-04-16T19:16:25.307Z,17.30
2023-04-16T19:18:53.100Z,19.20
2023-04-16T19:21:20.792Z,17.70
2023-04-16T19:23:49.117Z,19.40
2023-04-16T19:26:16.870Z,17.90
2023-04-16T19:28:45.827Z,16.20
2023-04-16T19:31:13.571Z,16.00
2023-04-16T19:33:41.685Z,16.20
2023-04-16T19:36:09.444Z,14.60
2023-04-16T19:38:37.261Z,15.90
2023-04-16T19:41:05.099Z,13.80
2023-04-16T19:43:33.355Z,14.70
2023-04-16T19:46:01.375Z,13.20
2023-04-16T19:48:30.581Z,14.40
2023-04-16T19:51:03.296Z,15.40
2023-04-16T19:53:31.072Z,12.10
2023-04-16T19:55:58.967Z,11.10
2023-04-16T19:58:27.210Z,13.40
2023-04-16T20:00:55.837Z,14.00
2023-04-16T20:03:23.700Z,13.80
2023-04-16T20:05:51.372Z,12.80
2023-04-16T20:08:19.403Z,14.10
2023-04-16T20:10:47.060Z,18.80
2023-04-16T20:13:16.716Z,14.70
2023-04-16T20:15:47.288Z,16.50
2023-04-16T20:18:15.451Z,16.50
2023-04-16T20:20:43.188Z,19.00
2023-04-16T20:23:11.288Z,14.30
2023-04-16T20:25:43.065Z,15.50
2023-04-16T20:28:10.821Z,17.30
2023-04-16T20:30:41.472Z,15.00
2023-04-16T20:33:09.619Z,17.90
2023-04-16T20:35:37.656Z,17.00
2023-04-16T20:38:05.389Z,14.70
2023-04-16T20:40:33.396Z,15.10
2023-04-16T20:43:01.178Z,16.30
2023-04-16T20:45:32.233Z,15.70
2023-04-16T20:48:00.141Z,17.60
2023-04-16T20:50:27.987Z,15.90
2023-04-16T20:52:56.398Z,17.20
2023-04-16T20:55:24.570Z,19.10
2023-04-16T20:57:52.446Z,17.20
2023-04-16T21:00:20.591Z,16.00
2023-04-16T21:02:48.437Z,14.70
2023-04-16T21:05:16.354Z,16.60
2023-04-16T21:07:44.074Z,19.00
2023-04-16T21:10:11.991Z,16.80
2023-04-16T21:12:39.834Z,17.90
2023-04-16T21:15:07.901Z,16.40
2023-04-16T21:17:35.930Z,15.90
2023-04-16T21:20:06.982Z,22.40
2023-04-16T21:22:34.811Z,17.40
2023-04-16T21:25:02.765Z,18.10
2023-04-16T21:27:30.523Z,19.50
2023-04-16T21:29:58.306Z,21.60
2023-04-16T21:32:26.091Z,21.50
2023-04-16T21:34:53.926Z,21.50
2023-04-16T21:37:21.579Z,17.80
2023-04-16T21:39:49.383Z,16.80
2023-04-16T21:42:17.107Z,20.80
2023-04-16T21:44:44.712Z,19.70
2023-04-16T21:47:12.908Z,21.10
2023-04-16T21:49:42.312Z,16.20
2023-04-16T21:52:18.397Z,16.20
2023-04-16T21:54:47.016Z,17.20
2023-04-16T21:57:14.856Z,19.30
2023-04-16T21:59:42.490Z,30.30
2023-04-16T22:02:10.229Z,19.20
2023-04-16T22:04:39.020Z,18.00
2023-04-16T22:07:09.007Z,15.10
2023-04-16T22:09:36.851Z,17.70
2023-04-16T22:12:12.199Z,21.10
2023-04-16T22:14:46.232Z,16.70
2023-04-16T22:17:17.188Z,17.50
2023-04-16T22:19:45.584Z,16.80
2023-04-16T22:22:13.564Z,19.90
2023-04-16T22:24:42.738Z,17.00
2023-04-16T22:27:10.744Z,15.50
2023-04-16T22:29:38.386Z,14.80
2023-04-16T22:32:06.082Z,18.20
2023-04-16T22:34:33.898Z,19.30
2023-04-16T22:37:03.145Z,19.20
2023-04-16T22:39:31.701Z,14.40
2023-04-16T22:41:59.679Z,15.50
2023-04-16T22:44:27.336Z,21.00
2023-04-16T22:46:55.036Z,22.60
2023-04-16T22:49:22.694Z,22.30
2023-04-16T22:51:50.353Z,18.80
2023-04-16T22:54:17.978Z,18.50
2023-04-16T22:56:48.734Z,21.00
2023-04-16T22:59:16.530Z,18.90
2023-04-16T23:01:44.279Z,18.70
2023-04-16T23:04:12.182Z,18.10
2023-04-16T23:06:41.000Z,20.00
2023-04-16T23:09:09.484Z,20.50
2023-04-16T23:11:37.236Z,20.40
2023-04-16T23:14:05.223Z,18.70
2023-04-16T23:16:32.851Z,19.70
2023-04-16T23:19:00.468Z,18.50
2023-04-16T23:21:28.673Z,20.70
2023-04-16T23:23:57.156Z,16.40
2023-04-16T23:26:24.840Z,19.60
2023-04-16T23:28:52.461Z,16.20
2023-04-16T23:31:20.190Z,15.20
2023-04-16T23:33:47.918Z,16.90
2023-04-16T23:36:15.785Z,17.20
2023-04-16T23:38:43.453Z,16.00
2023-04-16T23:41:11.143Z,13.00
2023-04-16T23:43:40.697Z,15.70
2023-04-16T23:46:08.528Z,18.20
2023-04-16T23:48:36.327Z,21.20
2023-04-16T23:51:04.427Z,18.00
2023-04-16T23:53:32.055Z,18.00
2023-04-16T23:55:59.660Z,20.80
2023-04-16T23:58:27.390Z,18.50
